Pagina principale
METAR-TAF:

METAR-TAF

Aeroporti :

Mostar, Bosnia-Erzegovina

Aeroporto Internazionale di Mostar

latitudine: 43-21N, longitudine: 017-48E, altezza: 108 m

Osservazione

Il bollettino è stato emesso 34 minuti fa, alle 17:00 UTC
Vento 5 kt da nord, variando fra nord-ovest e est
Temperature 12°C
Umidità 54%
Pressione 1012 hPa
Visibilità 10 km o più
Nubi sparse ad un'altezza di 6000 ft

METAR: LQMO 181700Z 35005KT 310V100 9999 SCT060 12/03 Q1012

Ora: 18:34 (17:34 UTC)

Previsione

Il bollettino è stato emesso 6 ore e 34 minuti fa, alle 11:00 UTC
Previsione valida dal 18 alle 12 UTC al 19 alle 12 UTC
Vento 5 kt da sud/sud-est
Visibilità 10 km o più
nessuna nube inferiore a 1500 m e nessun cumulonembo

TAF: LQMO 181100Z 1812/1912 15005KT CAVOK TX17/1912Z TN03/1905Z

Osservazioni e previsioni meteorologiche di più di 4000 aeroporti (messaggi METAR e TAF).

Le stazioni disponibili sono rappresentate dai dischi gialli e rossi sulla carta.

Puntare il mouse per vedere il nome della stazione.

Clicca sopra per visualizzare le osservazioni e previsioni meteorologiche.

Per cambiare la mappa : fare clic sui pulsanti verdi con una croce nera per ingrandire, il pulsante verde con un trattino per diminuire, o sulla freccia verde per le mappe adiacenti.


METAR-TAF: